createdAt,value
2022-08-03T00:00:39.632Z,65.10
2022-08-03T00:03:09.199Z,65.70
2022-08-03T00:05:37.975Z,54.40
2022-08-03T00:08:06.311Z,65.30
2022-08-03T00:10:35.031Z,55.10
2022-08-03T00:15:31.612Z,66.20
2022-08-03T00:18:02.293Z,69.70
2022-08-03T00:20:34.964Z,54.60
2022-08-03T00:27:59.865Z,54.60
2022-08-03T00:30:30.810Z,60.40
2022-08-03T00:32:59.556Z,66.50
2022-08-03T00:35:36.866Z,69.30
2022-08-03T00:38:17.730Z,66.20
2022-08-03T00:40:45.923Z,66.90
2022-08-03T00:43:15.958Z,66.30
2022-08-03T00:45:44.501Z,66.30
2022-08-03T00:48:19.545Z,56.50
2022-08-03T00:53:28.738Z,67.20
2022-08-03T00:55:56.965Z,66.80
2022-08-03T00:58:25.283Z,67.30
2022-08-03T01:00:53.410Z,67.00
2022-08-03T01:05:54.913Z,70.70
2022-08-03T01:08:34.501Z,66.90
2022-08-03T01:11:11.273Z,68.20
2022-08-03T01:14:03.618Z,68.40
2022-08-03T01:16:43.148Z,67.90
2022-08-03T01:19:26.677Z,57.50
2022-08-03T01:22:11.537Z,68.80
2022-08-03T01:24:51.733Z,56.40
2022-08-03T01:27:26.742Z,56.30
2022-08-03T01:30:12.005Z,56.30
2022-08-03T01:32:59.108Z,68.40
2022-08-03T01:35:38.365Z,68.60
2022-08-03T01:38:11.422Z,67.80
2022-08-03T01:40:42.318Z,56.80
2022-08-03T01:43:14.435Z,67.10
2022-08-03T01:46:04.406Z,56.60
2022-08-03T01:48:33.684Z,56.80
2022-08-03T01:51:02.772Z,56.70
2022-08-03T01:53:42.776Z,68.20
2022-08-03T01:56:12.266Z,57.00
2022-08-03T01:58:42.573Z,68.50
2022-08-03T02:01:13.902Z,57.60
2022-08-03T02:03:59.526Z,68.60
2022-08-03T02:07:00.140Z,70.10
2022-08-03T02:09:21.672Z,57.80
2022-08-03T02:14:20.693Z,57.70
2022-08-03T02:16:51.470Z,57.70
2022-08-03T02:21:56.874Z,57.60
2022-08-03T02:24:29.815Z,68.50
2022-08-03T02:29:39.277Z,69.00
2022-08-03T02:32:13.561Z,58.00
2022-08-03T02:34:44.800Z,68.80
2022-08-03T02:37:14.600Z,57.80
2022-08-03T02:39:43.792Z,68.80
2022-08-03T02:42:14.708Z,69.60
2022-08-03T02:44:48.395Z,69.80
2022-08-03T02:47:21.372Z,72.70
2022-08-03T02:49:52.370Z,58.10
2022-08-03T02:52:23.480Z,69.70
2022-08-03T02:54:55.968Z,58.80
2022-08-03T02:57:25.913Z,57.50
2022-08-03T02:59:55.265Z,57.90
2022-08-03T03:02:26.156Z,70.00
2022-08-03T03:05:55.965Z,57.90
2022-08-03T03:12:51.482Z,58.20
2022-08-03T03:15:20.197Z,59.60
2022-08-03T03:17:51.500Z,58.00
2022-08-03T03:23:00.890Z,58.30
2022-08-03T03:25:30.104Z,70.60
2022-08-03T03:27:58.726Z,69.70
2022-08-03T03:30:27.984Z,70.20
2022-08-03T03:32:58.589Z,69.80
2022-08-03T03:35:27.986Z,58.50
2022-08-03T03:37:56.203Z,71.10
2022-08-03T03:42:53.201Z,70.70
2022-08-03T03:45:22.965Z,70.80
2022-08-03T03:47:51.918Z,59.30
2022-08-03T03:50:23.833Z,58.90
2022-08-03T03:52:51.852Z,70.40
2022-08-03T03:55:20.433Z,71.30
2022-08-03T03:57:48.507Z,71.20
2022-08-03T04:00:18.852Z,74.60
2022-08-03T04:05:34.088Z,70.50
2022-08-03T04:08:25.010Z,58.60
2022-08-03T04:11:03.756Z,70.90
2022-08-03T04:13:35.246Z,58.20
2022-08-03T04:16:05.243Z,70.60
2022-08-03T04:18:36.300Z,71.10
2022-08-03T04:21:06.682Z,71.40
2022-08-03T04:23:39.039Z,58.80
2022-08-03T04:26:09.666Z,71.40
2022-08-03T04:28:40.558Z,59.00
2022-08-03T04:31:09.165Z,71.10
2022-08-03T04:33:39.797Z,70.60
2022-08-03T04:36:10.334Z,58.70
2022-08-03T04:38:45.332Z,70.90
2022-08-03T04:43:42.630Z,57.50
2022-08-03T04:46:11.629Z,58.60
2022-08-03T04:51:13.339Z,70.80
2022-08-03T04:53:44.360Z,70.90
2022-08-03T04:56:12.508Z,70.60
2022-08-03T04:58:40.468Z,70.50
2022-08-03T05:01:08.698Z,70.30
2022-08-03T05:03:36.680Z,71.30
2022-08-03T05:06:11.211Z,71.30
2022-08-03T05:08:46.182Z,70.50
2022-08-03T05:11:16.409Z,58.70
2022-08-03T05:13:44.484Z,70.80
2022-08-03T05:18:42.165Z,71.20
2022-08-03T05:21:10.657Z,70.60
2022-08-03T05:23:38.607Z,73.20
2022-08-03T05:26:06.596Z,71.00
2022-08-03T05:28:35.856Z,72.70
2022-08-03T05:31:03.801Z,70.10
2022-08-03T05:33:32.094Z,70.00
2022-08-03T05:36:04.231Z,59.00
2022-08-03T05:38:34.825Z,70.50
2022-08-03T05:41:20.335Z,69.10
2022-08-03T05:43:53.743Z,59.00
2022-08-03T05:48:50.856Z,72.70
2022-08-03T05:51:18.985Z,70.30
2022-08-03T05:53:47.063Z,72.20
2022-08-03T05:56:16.655Z,69.50
2022-08-03T05:58:46.297Z,69.70
2022-08-03T06:01:16.036Z,57.90
2022-08-03T06:03:44.120Z,69.30
2022-08-03T06:06:12.632Z,72.00
2022-08-03T06:08:41.012Z,69.00
2022-08-03T06:13:38.242Z,69.10
2022-08-03T06:16:06.755Z,69.30
2022-08-03T06:18:36.349Z,57.30
2022-08-03T06:21:14.711Z,72.00
2022-08-03T06:23:53.155Z,68.70
2022-08-03T06:26:25.107Z,67.80
2022-08-03T06:28:54.404Z,58.00
2022-08-03T06:31:25.970Z,69.10
2022-08-03T06:34:34.447Z,68.90
2022-08-03T06:36:52.403Z,57.80
2022-08-03T06:39:23.449Z,70.00
2022-08-03T06:41:53.099Z,56.90
2022-08-03T06:44:21.199Z,67.60
2022-08-03T06:46:49.142Z,70.20
2022-08-03T06:49:18.949Z,69.70
2022-08-03T06:52:03.278Z,69.10
2022-08-03T06:54:35.988Z,69.70
2022-08-03T06:57:08.356Z,73.20
2022-08-03T07:00:08.706Z,59.00
2022-08-03T07:05:11.387Z,71.00
2022-08-03T07:10:17.192Z,68.40
2022-08-03T07:20:43.570Z,57.80
2022-08-03T07:23:19.167Z,68.30
2022-08-03T07:30:50.891Z,70.50
2022-08-03T07:35:48.926Z,59.00
2022-08-03T07:48:17.744Z,69.00
2022-08-03T07:53:16.063Z,59.10
2022-08-03T07:58:19.158Z,58.60
2022-08-03T08:08:21.624Z,58.60
2022-08-03T08:18:24.815Z,66.50
2022-08-03T08:20:56.097Z,67.60
2022-08-03T08:23:42.641Z,57.00
2022-08-03T08:28:40.716Z,70.30
2022-08-03T08:31:08.914Z,67.40
2022-08-03T08:38:55.557Z,52.40
2022-08-03T08:41:23.684Z,56.90
2022-08-03T08:46:30.835Z,50.30
2022-08-03T08:49:00.379Z,48.10
2022-08-03T08:51:50.556Z,47.90
2022-08-03T08:54:27.992Z,45.40
2022-08-03T08:57:00.033Z,42.50
2022-08-03T09:07:20.429Z,51.60
2022-08-03T09:10:10.948Z,49.80
2022-08-03T09:12:42.327Z,48.20
2022-08-03T09:15:23.275Z,47.30
2022-08-03T09:17:53.055Z,37.40
2022-08-03T09:20:23.503Z,38.10
2022-08-03T09:22:57.366Z,49.60
2022-08-03T09:25:31.882Z,44.30
2022-08-03T09:28:09.141Z,45.90
2022-08-03T09:30:38.415Z,35.60
2022-08-03T09:33:08.730Z,44.00
2022-08-03T09:35:58.125Z,35.20
2022-08-03T09:38:27.719Z,35.40
2022-08-03T09:41:00.771Z,40.40
2022-08-03T09:43:29.219Z,35.20
2022-08-03T09:46:08.780Z,31.50
2022-08-03T09:51:12.749Z,40.90
2022-08-03T09:53:58.522Z,38.20
2022-08-03T09:56:44.504Z,39.20
2022-08-03T09:59:13.637Z,36.80
2022-08-03T10:01:42.744Z,36.30
2022-08-03T10:04:14.884Z,29.90
2022-08-03T10:09:12.817Z,35.90
2022-08-03T10:11:43.394Z,33.50
2022-08-03T10:14:18.723Z,28.80
2022-08-03T10:16:47.738Z,32.30
2022-08-03T10:19:16.447Z,34.00
2022-08-03T10:21:58.877Z,35.40
2022-08-03T10:24:32.208Z,34.60
2022-08-03T10:27:04.932Z,28.70
2022-08-03T10:29:43.985Z,28.80
2022-08-03T10:32:20.254Z,33.20
2022-08-03T10:34:51.672Z,34.70
2022-08-03T10:37:31.346Z,32.70
2022-08-03T10:40:01.158Z,32.10
2022-08-03T10:42:32.381Z,27.80
2022-08-03T10:45:06.534Z,26.60
2022-08-03T10:47:36.414Z,31.50
2022-08-03T10:50:06.048Z,32.60
2022-08-03T10:52:38.249Z,27.90
2022-08-03T10:55:51.660Z,33.40
2022-08-03T10:58:57.474Z,32.90
2022-08-03T11:02:00.112Z,27.60
2022-08-03T11:04:30.722Z,27.80
2022-08-03T11:07:23.859Z,31.20
2022-08-03T11:09:52.935Z,31.70
2022-08-03T11:12:30.505Z,31.70
2022-08-03T11:15:09.090Z,25.60
2022-08-03T11:17:46.881Z,27.20
2022-08-03T11:20:47.789Z,26.30
2022-08-03T11:23:17.953Z,28.10
2022-08-03T11:26:11.370Z,25.60
2022-08-03T11:28:40.351Z,29.80
2022-08-03T11:31:51.671Z,29.10
2022-08-03T11:34:19.999Z,29.60
2022-08-03T11:37:24.634Z,26.40
2022-08-03T11:39:57.285Z,31.40
2022-08-03T11:42:46.986Z,30.10
2022-08-03T11:45:16.059Z,29.60
2022-08-03T11:47:50.244Z,27.00
2022-08-03T11:50:20.248Z,28.60
2022-08-03T11:52:49.221Z,26.30
2022-08-03T11:55:20.496Z,33.60
2022-08-03T11:59:10.876Z,33.60
2022-08-03T12:00:37.297Z,29.00
2022-08-03T12:03:08.945Z,26.80
2022-08-03T12:05:51.880Z,24.00
2022-08-03T12:08:32.198Z,24.70
2022-08-03T12:11:03.110Z,29.40
2022-08-03T12:14:45.073Z,28.80
2022-08-03T12:16:28.861Z,26.90
2022-08-03T12:19:00.251Z,24.70
2022-08-03T12:21:29.143Z,26.50
2022-08-03T12:24:01.548Z,26.70
2022-08-03T12:26:30.333Z,27.20
2022-08-03T12:28:59.175Z,24.50
2022-08-03T12:33:59.380Z,22.00
2022-08-03T12:36:28.742Z,25.90
2022-08-03T12:38:58.453Z,26.70
2022-08-03T12:41:36.284Z,26.50
2022-08-03T12:44:05.202Z,30.50
2022-08-03T12:46:35.707Z,23.60
2022-08-03T12:49:11.069Z,26.20
2022-08-03T12:51:57.100Z,24.30
2022-08-03T12:54:27.199Z,21.60
2022-08-03T12:56:59.655Z,26.40
2022-08-03T12:59:32.316Z,25.50
2022-08-03T13:02:09.322Z,25.30
2022-08-03T13:04:39.375Z,20.80
2022-08-03T13:07:14.291Z,24.70
2022-08-03T13:09:44.218Z,24.60
2022-08-03T13:12:23.480Z,24.30
2022-08-03T13:14:53.415Z,21.10
2022-08-03T13:19:52.775Z,25.30
2022-08-03T13:22:22.400Z,21.70
2022-08-03T13:24:52.865Z,26.70
2022-08-03T13:28:01.001Z,28.70
2022-08-03T13:30:10.805Z,23.10
2022-08-03T13:36:05.720Z,23.60
2022-08-03T13:38:38.282Z,21.00
2022-08-03T13:41:09.393Z,19.70
2022-08-03T13:46:08.516Z,23.50
2022-08-03T13:48:37.540Z,23.50
2022-08-03T13:51:22.092Z,22.50
2022-08-03T13:58:48.584Z,22.40
2022-08-03T14:01:16.863Z,20.80
2022-08-03T14:06:15.952Z,23.10
2022-08-03T14:11:13.011Z,23.00
2022-08-03T14:13:41.189Z,20.50
2022-08-03T14:16:09.869Z,20.70
2022-08-03T14:18:44.489Z,25.30
2022-08-03T14:21:14.913Z,21.30
2022-08-03T14:23:51.929Z,24.30
2022-08-03T14:28:50.725Z,23.90
2022-08-03T14:36:40.171Z,20.00
2022-08-03T14:44:06.155Z,22.60
2022-08-03T14:50:38.414Z,19.10
2022-08-03T14:51:56.196Z,27.20
2022-08-03T14:56:53.127Z,23.60
2022-08-03T14:59:21.301Z,23.10
2022-08-03T15:02:06.455Z,24.50
2022-08-03T15:07:06.842Z,27.70
2022-08-03T15:09:35.070Z,32.40
2022-08-03T15:12:06.611Z,28.40
2022-08-03T15:14:35.013Z,30.40
2022-08-03T15:20:03.088Z,25.50
2022-08-03T15:22:34.561Z,25.50
2022-08-03T15:28:04.168Z,20.60
2022-08-03T15:30:36.012Z,24.70
2022-08-03T15:33:04.617Z,28.40
2022-08-03T15:35:33.071Z,24.60
2022-08-03T15:38:07.306Z,20.50
2022-08-03T15:45:37.552Z,23.80
2022-08-03T15:48:06.389Z,24.00
2022-08-03T15:50:37.812Z,24.00
2022-08-03T15:53:07.377Z,26.60
2022-08-03T15:59:04.449Z,22.40
2022-08-03T16:03:38.503Z,19.70
2022-08-03T16:06:08.212Z,23.70
2022-08-03T16:08:37.646Z,23.90
2022-08-03T16:11:05.891Z,23.40
2022-08-03T16:14:12.356Z,23.20
2022-08-03T16:18:50.722Z,27.10
2022-08-03T16:21:20.031Z,26.60
2022-08-03T16:24:00.677Z,26.70
2022-08-03T16:26:30.055Z,26.10
2022-08-03T16:29:00.421Z,31.70
2022-08-03T16:31:29.200Z,32.30
2022-08-03T16:33:57.748Z,28.50
2022-08-03T16:36:26.826Z,29.40
2022-08-03T16:39:04.540Z,29.80
2022-08-03T16:41:53.957Z,29.40
2022-08-03T16:44:20.718Z,25.50
2022-08-03T16:46:49.292Z,34.70
2022-08-03T16:49:54.747Z,30.50
2022-08-03T16:52:07.125Z,29.70
2022-08-03T16:54:36.793Z,30.40
2022-08-03T16:57:05.655Z,30.90
2022-08-03T16:59:36.437Z,31.20
2022-08-03T17:02:10.215Z,30.30
2022-08-03T17:04:40.316Z,25.60
2022-08-03T17:07:09.232Z,31.30
2022-08-03T17:09:39.119Z,25.60
2022-08-03T17:17:16.327Z,31.80
2022-08-03T17:19:47.160Z,31.70
2022-08-03T17:22:19.498Z,32.10
2022-08-03T17:24:52.294Z,31.60
2022-08-03T17:28:49.511Z,26.90
2022-08-03T17:30:15.824Z,32.70
2022-08-03T17:32:57.655Z,31.80
2022-08-03T17:35:36.866Z,26.30
2022-08-03T17:38:11.993Z,32.50
2022-08-03T17:40:50.061Z,32.20
2022-08-03T17:44:14.281Z,31.90
2022-08-03T17:46:11.432Z,33.40
2022-08-03T17:48:42.067Z,32.50
2022-08-03T17:51:17.252Z,33.50
2022-08-03T17:53:54.137Z,32.10
2022-08-03T17:56:42.626Z,36.50
2022-08-03T17:59:50.725Z,27.40
2022-08-03T18:02:49.839Z,26.70
2022-08-03T18:05:21.895Z,33.20
2022-08-03T18:07:59.179Z,32.70
2022-08-03T18:13:57.673Z,33.50
2022-08-03T18:16:32.559Z,27.10
2022-08-03T18:19:09.327Z,34.10
2022-08-03T18:22:03.030Z,30.90
2022-08-03T18:24:32.629Z,33.70
2022-08-03T18:27:03.441Z,34.10
2022-08-03T18:29:33.718Z,34.50
2022-08-03T18:34:41.096Z,34.30
2022-08-03T18:37:25.780Z,27.80
2022-08-03T18:39:58.134Z,27.90
2022-08-03T18:42:27.190Z,34.80
2022-08-03T18:44:57.548Z,27.90
2022-08-03T18:47:54.014Z,35.30
2022-08-03T18:50:30.851Z,34.80
2022-08-03T18:53:16.380Z,34.20
2022-08-03T18:56:01.442Z,30.70
2022-08-03T18:58:38.670Z,35.00
2022-08-03T19:02:00.419Z,34.80
2022-08-03T19:04:10.969Z,28.20
2022-08-03T19:06:44.826Z,28.40
2022-08-03T19:09:22.859Z,35.40
2022-08-03T19:12:13.188Z,29.30
2022-08-03T19:14:52.453Z,28.60
2022-08-03T19:17:23.780Z,35.30
2022-08-03T19:19:59.672Z,36.20
2022-08-03T19:22:31.615Z,28.70
2022-08-03T19:25:02.440Z,35.60
2022-08-03T19:27:34.826Z,35.80
2022-08-03T19:30:19.792Z,35.50
2022-08-03T19:32:52.202Z,28.80
2022-08-03T19:35:46.464Z,36.60
2022-08-03T19:38:09.950Z,36.90
2022-08-03T19:40:44.292Z,36.70
2022-08-03T19:43:22.864Z,37.00
2022-08-03T19:46:05.816Z,29.30
2022-08-03T19:48:39.636Z,29.50
2022-08-03T19:51:12.684Z,29.50
2022-08-03T19:53:45.150Z,30.10
2022-08-03T19:56:17.590Z,29.60
2022-08-03T20:03:53.306Z,30.00
2022-08-03T20:06:24.154Z,30.00
2022-08-03T20:08:56.582Z,31.60
2022-08-03T20:11:28.882Z,32.30
2022-08-03T20:19:39.992Z,30.20
2022-08-03T20:22:14.302Z,30.00
2022-08-03T20:24:53.019Z,31.20
2022-08-03T20:27:30.168Z,31.20
2022-08-03T20:30:07.045Z,37.60
2022-08-03T20:35:10.012Z,30.10
2022-08-03T20:40:14.077Z,30.60
2022-08-03T20:45:58.382Z,32.50
2022-08-03T20:48:06.784Z,30.50
2022-08-03T20:50:39.637Z,30.80
2022-08-03T20:53:09.270Z,38.70
2022-08-03T21:06:15.897Z,31.30
2022-08-03T21:08:50.573Z,31.30
2022-08-03T21:11:20.357Z,31.40
2022-08-03T21:13:56.692Z,31.60
2022-08-03T21:19:01.474Z,32.30
2022-08-03T21:21:38.531Z,30.20
2022-08-03T21:24:08.977Z,32.90
2022-08-03T21:26:40.792Z,32.20
2022-08-03T21:31:41.312Z,32.10
2022-08-03T21:36:50.636Z,32.10
2022-08-03T21:44:28.708Z,32.80
2022-08-03T21:47:00.127Z,40.70
2022-08-03T21:50:07.811Z,32.80
2022-08-03T21:52:23.321Z,47.50
2022-08-03T21:54:55.246Z,32.70
2022-08-03T21:57:25.559Z,32.80
2022-08-03T21:59:55.963Z,40.80
2022-08-03T22:02:31.319Z,33.10
2022-08-03T22:07:35.929Z,40.00
2022-08-03T22:10:07.315Z,31.40
2022-08-03T22:12:36.821Z,31.60
2022-08-03T22:15:08.924Z,33.90
2022-08-03T22:17:56.334Z,32.00
2022-08-03T22:20:25.833Z,40.50
2022-08-03T22:23:00.926Z,40.40
2022-08-03T22:25:31.273Z,32.80
2022-08-03T22:28:03.245Z,39.80
2022-08-03T22:33:08.337Z,31.80
2022-08-03T22:35:47.319Z,33.60
2022-08-03T22:38:18.919Z,32.40
2022-08-03T22:40:50.946Z,32.60
2022-08-03T22:43:23.599Z,32.60
2022-08-03T22:46:08.835Z,33.30
2022-08-03T22:53:40.680Z,32.60
2022-08-03T22:56:09.452Z,41.10
2022-08-03T23:01:08.824Z,33.40
2022-08-03T23:04:00.897Z,33.50
2022-08-03T23:06:35.115Z,42.40
2022-08-03T23:09:06.976Z,43.20
2022-08-03T23:11:45.776Z,33.80
2022-08-03T23:14:16.273Z,33.70
2022-08-03T23:16:46.005Z,33.90
2022-08-03T23:19:17.334Z,34.10
2022-08-03T23:22:02.644Z,36.70
2022-08-03T23:24:37.133Z,34.20
2022-08-03T23:27:08.478Z,34.10
2022-08-03T23:29:38.235Z,34.50
2022-08-03T23:32:07.928Z,44.80
2022-08-03T23:37:22.528Z,34.60
2022-08-03T23:39:54.198Z,44.40
2022-08-03T23:42:23.358Z,35.10
2022-08-03T23:44:55.592Z,44.80
2022-08-03T23:52:52.330Z,35.60
2022-08-03T23:55:33.140Z,35.90
2022-08-03T23:58:11.336Z,45.50
